createdAt,value
2022-11-30T00:00:33.638Z,29.80
2022-11-30T00:03:00.556Z,36.55
2022-11-30T00:05:27.579Z,34.08
2022-11-30T00:07:54.687Z,29.83
2022-11-30T00:10:22.168Z,34.15
2022-11-30T00:12:49.506Z,32.67
2022-11-30T00:15:17.609Z,30.88
2022-11-30T00:17:45.229Z,31.75
2022-11-30T00:20:16.637Z,31.85
2022-11-30T00:22:43.393Z,31.67
2022-11-30T00:25:10.115Z,30.70
2022-11-30T00:27:36.705Z,28.73
2022-11-30T00:30:03.706Z,33.67
2022-11-30T00:32:30.294Z,28.05
2022-11-30T00:34:57.008Z,33.90
2022-11-30T00:37:23.781Z,32.20
2022-11-30T00:39:50.400Z,35.00
2022-11-30T00:42:17.139Z,31.98
2022-11-30T00:47:14.024Z,26.55
2022-11-30T00:49:40.760Z,36.55
2022-11-30T00:52:07.943Z,37.63
2022-11-30T00:54:34.688Z,33.47
2022-11-30T00:57:01.392Z,32.08
2022-11-30T00:59:29.472Z,31.77
2022-11-30T01:01:56.227Z,32.00
2022-11-30T01:04:23.276Z,33.00
2022-11-30T01:06:50.079Z,34.50
2022-11-30T01:11:43.288Z,25.38
2022-11-30T01:14:10.005Z,30.38
2022-11-30T01:16:36.716Z,29.77
2022-11-30T01:19:04.086Z,31.23
2022-11-30T01:21:30.888Z,36.80
2022-11-30T01:26:24.225Z,24.63
2022-11-30T01:28:56.309Z,35.08
2022-11-30T01:31:24.937Z,32.35
2022-11-30T01:33:55.984Z,31.42
2022-11-30T01:36:25.890Z,35.85
2022-11-30T01:38:56.159Z,35.42
2022-11-30T01:41:32.708Z,37.47
2022-11-30T01:44:05.326Z,38.80
2022-11-30T01:47:10.029Z,31.00
2022-11-30T01:49:41.742Z,32.85
2022-11-30T01:52:15.190Z,30.08
2022-11-30T01:54:54.818Z,33.83
2022-11-30T01:57:24.452Z,30.23
2022-11-30T01:59:53.528Z,29.70
2022-11-30T02:02:26.628Z,30.60
2022-11-30T02:04:54.403Z,31.08
2022-11-30T02:07:21.991Z,33.10
2022-11-30T02:09:48.690Z,33.25
2022-11-30T02:12:32.078Z,33.65
2022-11-30T02:15:06.667Z,29.90
2022-11-30T02:18:02.341Z,32.80
2022-11-30T02:20:47.343Z,30.80
2022-11-30T02:23:41.799Z,30.45
2022-11-30T02:26:34.585Z,29.20
2022-11-30T02:29:11.150Z,32.50
2022-11-30T02:31:44.544Z,28.50
2022-11-30T02:34:13.899Z,28.42
2022-11-30T02:36:40.699Z,29.27
2022-11-30T02:41:41.177Z,31.40
2022-11-30T02:44:11.339Z,31.80
2022-11-30T02:46:59.586Z,31.77
2022-11-30T02:49:31.917Z,29.58
2022-11-30T02:52:00.186Z,34.45
2022-11-30T02:54:26.880Z,35.67
2022-11-30T02:56:53.491Z,34.22
2022-11-30T02:59:20.759Z,31.95
2022-11-30T03:01:47.420Z,31.63
2022-11-30T03:04:14.119Z,30.80
2022-11-30T03:06:40.782Z,32.55
2022-11-30T03:09:07.628Z,28.13
2022-11-30T03:11:34.449Z,28.60
2022-11-30T03:14:01.107Z,27.73
2022-11-30T03:16:27.847Z,32.42
2022-11-30T03:18:54.552Z,28.70
2022-11-30T03:21:21.527Z,25.67
2022-11-30T03:23:48.251Z,28.67
2022-11-30T03:26:15.017Z,28.33
2022-11-30T03:31:14.150Z,29.27
2022-11-30T03:33:42.121Z,27.00
2022-11-30T03:36:11.097Z,28.88
2022-11-30T03:38:38.606Z,25.80
2022-11-30T03:41:08.717Z,25.77
2022-11-30T03:43:35.659Z,28.08
2022-11-30T03:48:29.518Z,30.83
2022-11-30T03:53:24.044Z,26.48
2022-11-30T03:55:55.308Z,27.38
2022-11-30T03:58:22.292Z,24.98
2022-11-30T04:00:49.055Z,32.00
2022-11-30T04:03:16.114Z,28.70
2022-11-30T04:05:43.251Z,27.08
2022-11-30T04:08:09.966Z,30.65
2022-11-30T04:13:03.307Z,25.13
2022-11-30T04:17:56.524Z,27.73
2022-11-30T04:20:23.233Z,31.85
2022-11-30T04:22:49.876Z,35.97
2022-11-30T04:27:46.893Z,28.08
2022-11-30T04:30:14.067Z,31.42
2022-11-30T04:32:40.682Z,31.08
2022-11-30T04:35:07.791Z,30.02
2022-11-30T04:37:34.790Z,33.30
2022-11-30T04:40:01.480Z,28.80
2022-11-30T04:42:28.041Z,35.13
2022-11-30T04:44:54.693Z,30.45
2022-11-30T04:47:21.555Z,34.50
2022-11-30T04:52:15.169Z,30.30
2022-11-30T04:54:41.775Z,33.15
2022-11-30T04:57:08.433Z,33.08
2022-11-30T04:59:35.027Z,31.48
2022-11-30T05:02:01.867Z,28.63
2022-11-30T05:06:55.236Z,23.63
2022-11-30T05:09:22.028Z,31.88
2022-11-30T05:11:49.477Z,32.38
2022-11-30T05:14:16.144Z,30.77
2022-11-30T05:16:42.816Z,31.60
2022-11-30T05:19:09.569Z,29.65
2022-11-30T05:21:36.238Z,31.50
2022-11-30T05:24:02.883Z,31.30
2022-11-30T05:26:29.547Z,38.75
2022-11-30T05:28:56.175Z,36.47
2022-11-30T05:31:23.030Z,34.72
2022-11-30T05:33:51.587Z,38.88
2022-11-30T05:36:18.690Z,31.55
2022-11-30T05:38:46.207Z,39.70
2022-11-30T05:41:13.363Z,33.83
2022-11-30T05:43:40.480Z,32.58
2022-11-30T05:46:09.047Z,35.17
2022-11-30T05:48:36.905Z,37.28
2022-11-30T05:51:18.082Z,32.83
2022-11-30T05:53:46.005Z,36.67
2022-11-30T05:56:19.091Z,30.27
2022-11-30T05:58:46.918Z,32.85
2022-11-30T06:01:27.534Z,30.77
2022-11-30T06:03:55.005Z,30.92
2022-11-30T06:06:22.871Z,31.67
2022-11-30T06:08:52.147Z,27.50
2022-11-30T06:11:18.837Z,31.98
2022-11-30T06:13:45.741Z,34.92
2022-11-30T06:16:12.508Z,33.55
2022-11-30T06:21:09.714Z,32.97
2022-11-30T06:23:38.781Z,36.53
2022-11-30T06:26:11.494Z,35.22
2022-11-30T06:28:40.587Z,33.33
2022-11-30T06:31:09.326Z,31.13
2022-11-30T06:33:36.084Z,35.28
2022-11-30T06:36:03.937Z,36.80
2022-11-30T06:38:31.186Z,34.08
2022-11-30T06:41:09.349Z,33.08
2022-11-30T06:43:37.460Z,34.15
2022-11-30T06:46:05.544Z,36.08
2022-11-30T06:48:33.101Z,32.92
2022-11-30T06:51:00.558Z,35.63
2022-11-30T06:53:27.791Z,31.85
2022-11-30T06:55:54.930Z,41.65
2022-11-30T07:00:48.592Z,36.30
2022-11-30T07:03:15.663Z,33.97
2022-11-30T07:05:44.878Z,38.95
2022-11-30T07:08:13.726Z,41.38
2022-11-30T07:10:42.013Z,36.28
2022-11-30T07:13:16.459Z,40.65
2022-11-30T07:15:43.953Z,38.58
2022-11-30T07:18:12.050Z,35.17
2022-11-30T07:20:39.287Z,35.70
2022-11-30T07:23:24.853Z,33.53
2022-11-30T07:26:09.307Z,33.05
2022-11-30T07:28:38.608Z,35.22
2022-11-30T07:31:18.552Z,42.92
2022-11-30T07:33:45.802Z,36.97
2022-11-30T07:36:13.000Z,39.40
2022-11-30T07:38:39.994Z,42.30
2022-11-30T07:41:07.314Z,41.97
2022-11-30T07:43:34.621Z,46.88
2022-11-30T07:46:01.771Z,43.45
2022-11-30T07:48:29.285Z,49.28
2022-11-30T07:51:03.226Z,47.55
2022-11-30T07:53:29.874Z,45.00
2022-11-30T07:56:01.953Z,39.45
2022-11-30T07:58:29.018Z,37.50
2022-11-30T08:00:55.708Z,41.28
2022-11-30T08:03:22.488Z,38.55
2022-11-30T08:08:15.639Z,35.72
2022-11-30T08:10:42.275Z,42.50
2022-11-30T08:13:09.107Z,38.00
2022-11-30T08:15:35.940Z,33.13
2022-11-30T08:18:07.039Z,37.92
2022-11-30T08:20:33.757Z,40.85
2022-11-30T08:23:00.487Z,34.75
2022-11-30T08:25:27.267Z,38.00
2022-11-30T08:30:20.636Z,35.95
2022-11-30T08:32:47.420Z,32.70
2022-11-30T08:35:14.082Z,40.75
2022-11-30T08:37:40.704Z,37.22
2022-11-30T08:40:07.729Z,31.85
2022-11-30T08:42:34.507Z,39.90
2022-11-30T08:47:31.104Z,32.35
2022-11-30T08:49:58.651Z,33.58
2022-11-30T08:52:25.302Z,34.30
2022-11-30T08:54:52.713Z,28.40
2022-11-30T08:57:21.322Z,37.33
2022-11-30T08:59:49.149Z,29.70
2022-11-30T09:02:18.771Z,34.33
2022-11-30T09:04:49.261Z,32.10
2022-11-30T09:07:35.552Z,30.38
2022-11-30T09:12:28.841Z,33.28
2022-11-30T09:14:58.247Z,32.83
2022-11-30T09:17:26.017Z,31.60
2022-11-30T09:19:52.699Z,33.60
2022-11-30T09:24:46.334Z,31.50
2022-11-30T09:27:13.268Z,29.08
2022-11-30T09:32:06.884Z,30.00
2022-11-30T09:37:00.073Z,27.23
2022-11-30T09:39:26.675Z,29.05
2022-11-30T09:42:05.434Z,31.65
2022-11-30T09:44:37.940Z,33.22
2022-11-30T09:47:15.274Z,29.70
2022-11-30T09:49:45.465Z,32.08
2022-11-30T09:52:18.776Z,32.85
2022-11-30T09:54:46.908Z,29.92
2022-11-30T09:57:31.855Z,28.10
2022-11-30T10:02:33.900Z,26.27
2022-11-30T10:05:01.075Z,33.90
2022-11-30T10:07:49.349Z,26.73
2022-11-30T10:10:34.724Z,27.77
2022-11-30T10:13:23.495Z,24.52
2022-11-30T10:16:08.497Z,30.60
2022-11-30T10:18:41.738Z,29.85
2022-11-30T10:21:26.685Z,26.67
2022-11-30T10:23:59.197Z,25.63
2022-11-30T10:26:34.155Z,30.63
2022-11-30T10:29:11.190Z,26.25
2022-11-30T10:31:40.007Z,29.20
2022-11-30T10:34:18.865Z,30.48
2022-11-30T10:36:52.227Z,30.35
2022-11-30T10:39:32.440Z,24.60
2022-11-30T10:42:19.321Z,26.17
2022-11-30T10:45:00.158Z,26.88
2022-11-30T10:47:31.399Z,28.42
2022-11-30T10:49:58.056Z,28.10
2022-11-30T10:52:28.990Z,30.63
2022-11-30T10:55:02.196Z,36.40
2022-11-30T10:57:32.406Z,33.80
2022-11-30T11:00:03.826Z,35.22
2022-11-30T11:02:49.363Z,31.65
2022-11-30T11:05:28.211Z,27.20
2022-11-30T11:10:36.380Z,28.83
2022-11-30T11:13:05.093Z,28.08
2022-11-30T11:15:34.243Z,29.50
2022-11-30T11:18:16.254Z,29.70
2022-11-30T11:20:43.675Z,30.90
2022-11-30T11:23:30.265Z,32.28
2022-11-30T11:25:57.608Z,27.77
2022-11-30T11:28:25.978Z,35.95
2022-11-30T11:30:55.305Z,26.25
2022-11-30T11:33:26.133Z,30.17
2022-11-30T11:36:12.419Z,26.42
2022-11-30T11:38:42.900Z,30.63
2022-11-30T11:41:18.460Z,32.22
2022-11-30T11:44:06.771Z,29.85
2022-11-30T11:46:37.416Z,27.63
2022-11-30T11:49:21.118Z,29.25
2022-11-30T11:51:56.818Z,29.23
2022-11-30T11:54:38.631Z,31.23
2022-11-30T11:57:11.829Z,29.92
2022-11-30T11:59:53.844Z,28.05
2022-11-30T12:02:38.532Z,29.80
2022-11-30T12:07:45.267Z,29.17
2022-11-30T12:10:43.645Z,37.33
2022-11-30T12:13:02.074Z,27.05
2022-11-30T12:15:37.276Z,30.00
2022-11-30T12:18:24.263Z,33.17
2022-11-30T12:21:14.586Z,30.85
2022-11-30T12:24:25.682Z,29.17
2022-11-30T12:27:07.237Z,27.25
2022-11-30T12:29:56.081Z,33.08
2022-11-30T12:32:42.519Z,29.90
2022-11-30T12:35:35.604Z,30.58
2022-11-30T12:38:14.420Z,34.30
2022-11-30T12:43:51.496Z,31.30
2022-11-30T12:46:35.786Z,32.70
2022-11-30T12:49:31.938Z,31.73
2022-11-30T12:52:28.299Z,33.05
2022-11-30T12:55:14.975Z,26.55
2022-11-30T12:57:48.722Z,31.08
2022-11-30T13:00:24.790Z,33.55
2022-11-30T13:03:02.594Z,32.78
2022-11-30T13:05:40.059Z,30.23
2022-11-30T13:08:25.765Z,34.60
2022-11-30T13:11:06.203Z,30.80
2022-11-30T13:13:36.923Z,33.55
2022-11-30T13:16:08.509Z,33.63
2022-11-30T13:18:37.830Z,36.67
2022-11-30T13:21:21.293Z,35.90
2022-11-30T13:24:19.937Z,32.60
2022-11-30T13:27:06.677Z,31.60
2022-11-30T13:29:59.270Z,39.55
2022-11-30T13:35:29.675Z,35.88
2022-11-30T13:38:35.798Z,35.42
2022-11-30T13:41:04.667Z,35.78
2022-11-30T13:43:48.115Z,32.78
2022-11-30T13:46:27.013Z,36.75
2022-11-30T13:49:23.935Z,37.17
2022-11-30T13:52:13.655Z,35.80
2022-11-30T13:54:50.299Z,38.90
2022-11-30T13:57:30.054Z,39.85
2022-11-30T14:00:02.337Z,35.78
2022-11-30T14:02:41.783Z,40.92
2022-11-30T14:05:17.650Z,36.05
2022-11-30T14:08:00.758Z,34.10
2022-11-30T14:10:29.278Z,37.70
2022-11-30T14:13:09.825Z,38.47
2022-11-30T14:15:41.167Z,37.53
2022-11-30T14:18:07.902Z,32.97
2022-11-30T14:20:42.882Z,34.53
2022-11-30T14:23:19.396Z,38.10
2022-11-30T14:25:51.197Z,35.20
2022-11-30T14:28:32.975Z,40.60
2022-11-30T14:31:00.594Z,31.77
2022-11-30T14:33:40.910Z,35.28
2022-11-30T14:36:09.613Z,33.75
2022-11-30T14:38:41.854Z,37.63
2022-11-30T14:41:25.760Z,39.92
2022-11-30T14:44:13.797Z,37.08
2022-11-30T14:46:41.418Z,32.13
2022-11-30T14:49:14.798Z,38.15
2022-11-30T14:51:54.290Z,40.53
2022-11-30T14:54:36.633Z,38.20
2022-11-30T14:57:34.115Z,36.15
2022-11-30T15:00:01.043Z,36.35
2022-11-30T15:02:39.024Z,36.97
2022-11-30T15:05:15.607Z,37.78
2022-11-30T15:07:43.984Z,35.92
2022-11-30T15:10:16.361Z,36.88
2022-11-30T15:12:45.098Z,33.90
2022-11-30T15:15:11.763Z,41.13
2022-11-30T15:20:41.475Z,36.45
2022-11-30T15:23:14.176Z,44.72
2022-11-30T15:25:46.854Z,43.30
2022-11-30T15:28:20.042Z,37.35
2022-11-30T15:30:49.776Z,36.17
2022-11-30T15:33:22.467Z,38.63
2022-11-30T15:38:40.393Z,35.38
2022-11-30T15:41:18.069Z,34.38
2022-11-30T15:43:50.860Z,35.17
2022-11-30T15:46:39.988Z,41.20
2022-11-30T15:49:17.517Z,40.38
2022-11-30T15:51:47.403Z,39.40
2022-11-30T15:54:16.689Z,34.63
2022-11-30T15:56:56.608Z,38.20
2022-11-30T15:59:25.635Z,39.53
2022-11-30T16:02:14.741Z,40.88
2022-11-30T16:05:14.516Z,43.47
2022-11-30T16:07:51.832Z,41.55
2022-11-30T16:10:29.559Z,40.28
2022-11-30T16:12:56.791Z,39.70
2022-11-30T16:15:29.447Z,35.25
2022-11-30T16:18:00.404Z,43.83
2022-11-30T16:20:27.184Z,43.17
2022-11-30T16:25:23.393Z,41.03
2022-11-30T16:27:50.936Z,48.33
2022-11-30T16:30:21.148Z,36.83
2022-11-30T16:32:48.375Z,45.53
2022-11-30T16:35:44.481Z,41.60
2022-11-30T16:38:11.310Z,46.88
2022-11-30T16:43:06.775Z,44.47
2022-11-30T16:45:36.561Z,47.42
2022-11-30T16:48:04.407Z,52.22
2022-11-30T16:50:32.835Z,45.53
2022-11-30T16:52:59.673Z,48.80
2022-11-30T16:55:37.842Z,45.20
2022-11-30T16:58:05.188Z,43.53
2022-11-30T17:00:33.170Z,41.10
2022-11-30T17:03:06.416Z,44.00
2022-11-30T17:05:33.199Z,40.63
2022-11-30T17:10:27.251Z,38.63
2022-11-30T17:12:54.094Z,42.88
2022-11-30T17:17:49.479Z,41.10
2022-11-30T17:20:17.997Z,41.42
2022-11-30T17:22:45.406Z,36.17
2022-11-30T17:25:20.004Z,42.65
2022-11-30T17:27:47.795Z,46.17
2022-11-30T17:30:18.593Z,47.03
2022-11-30T17:32:45.653Z,45.92
2022-11-30T17:35:12.666Z,44.95
2022-11-30T17:37:39.551Z,47.72
2022-11-30T17:40:07.344Z,44.13
2022-11-30T17:42:34.572Z,48.40
2022-11-30T17:45:01.258Z,43.88
2022-11-30T17:47:27.921Z,45.20
2022-11-30T17:49:54.726Z,48.78
2022-11-30T17:54:48.128Z,47.20
2022-11-30T17:57:14.947Z,48.70
2022-11-30T18:02:12.708Z,47.13
2022-11-30T18:04:40.670Z,53.72
2022-11-30T18:07:07.261Z,57.38
2022-11-30T18:09:39.271Z,63.58
2022-11-30T18:12:09.133Z,54.17
2022-11-30T18:14:36.501Z,55.05
2022-11-30T18:17:03.203Z,52.40
2022-11-30T18:21:59.776Z,43.60
2022-11-30T18:24:26.578Z,48.00
2022-11-30T18:26:54.546Z,46.17
2022-11-30T18:29:21.535Z,47.67
2022-11-30T18:31:48.781Z,44.92
2022-11-30T18:34:18.604Z,44.40
2022-11-30T18:36:45.639Z,48.60
2022-11-30T18:39:12.254Z,48.20
2022-11-30T18:41:39.269Z,52.10
2022-11-30T18:44:06.240Z,48.42
2022-11-30T18:46:33.009Z,49.75
2022-11-30T18:51:30.726Z,48.80
2022-11-30T18:54:00.183Z,47.45
2022-11-30T18:56:29.959Z,48.28
2022-11-30T18:59:02.737Z,46.95
2022-11-30T19:03:58.775Z,39.83
2022-11-30T19:06:29.772Z,44.15
2022-11-30T19:08:57.219Z,38.53
2022-11-30T19:11:24.010Z,42.63
2022-11-30T19:16:28.409Z,31.38
2022-11-30T19:18:58.628Z,35.67
2022-11-30T19:21:26.964Z,41.80
2022-11-30T19:23:53.801Z,41.20
2022-11-30T19:28:47.324Z,33.58
2022-11-30T19:31:15.824Z,47.38
2022-11-30T19:33:44.681Z,44.22
2022-11-30T19:36:15.390Z,42.10
2022-11-30T19:38:42.064Z,39.92
2022-11-30T19:41:12.179Z,37.30
2022-11-30T19:43:39.664Z,43.13
2022-11-30T19:46:08.842Z,43.20
2022-11-30T19:48:36.120Z,38.80
2022-11-30T19:51:10.874Z,40.15
2022-11-30T19:53:41.355Z,41.35
2022-11-30T19:56:10.704Z,41.15
2022-11-30T19:58:37.393Z,42.05
2022-11-30T20:01:05.177Z,40.40
2022-11-30T20:03:35.924Z,44.92
2022-11-30T20:06:03.351Z,45.17
2022-11-30T20:08:30.532Z,37.17
2022-11-30T20:10:57.160Z,48.70
2022-11-30T20:15:50.553Z,42.17
2022-11-30T20:18:17.266Z,37.83
2022-11-30T20:20:44.363Z,48.00
2022-11-30T20:23:11.063Z,49.70
2022-11-30T20:25:37.710Z,44.10
2022-11-30T20:28:09.636Z,45.35
2022-11-30T20:30:39.194Z,52.08
2022-11-30T20:35:32.348Z,46.90
2022-11-30T20:37:59.065Z,51.50
2022-11-30T20:40:25.731Z,49.33
2022-11-30T20:42:53.275Z,49.42
2022-11-30T20:45:19.997Z,54.13
2022-11-30T20:47:46.600Z,50.65
2022-11-30T20:50:13.670Z,55.90
2022-11-30T20:52:41.566Z,49.20
2022-11-30T20:55:08.697Z,49.55
2022-11-30T20:57:35.422Z,53.30
2022-11-30T21:02:28.974Z,52.05
2022-11-30T21:04:55.686Z,62.92
2022-11-30T21:07:22.772Z,61.38
2022-11-30T21:09:49.798Z,60.45
2022-11-30T21:12:16.467Z,64.78
2022-11-30T21:14:43.028Z,59.15
2022-11-30T21:17:10.754Z,64.15
2022-11-30T21:19:37.348Z,71.75
2022-11-30T21:22:04.645Z,71.80
2022-11-30T21:24:31.243Z,72.10
2022-11-30T21:26:57.920Z,69.57
2022-11-30T21:29:24.574Z,63.20
2022-11-30T21:31:51.197Z,70.28
2022-11-30T21:34:18.672Z,73.10
2022-11-30T21:36:45.607Z,72.90
2022-11-30T21:39:14.655Z,62.55
2022-11-30T21:41:42.240Z,65.32
2022-11-30T21:44:12.252Z,68.40
2022-11-30T21:46:38.971Z,60.67
2022-11-30T21:49:05.984Z,63.22
2022-11-30T21:51:33.029Z,64.13
2022-11-30T21:54:02.643Z,62.88
2022-11-30T21:56:33.309Z,60.50
2022-11-30T21:59:01.985Z,67.97
2022-11-30T22:01:31.338Z,56.47
2022-11-30T22:03:59.808Z,66.03
2022-11-30T22:06:28.380Z,70.00
2022-11-30T22:09:03.229Z,65.53
2022-11-30T22:11:30.989Z,65.93
2022-11-30T22:13:57.778Z,64.13
2022-11-30T22:18:53.757Z,51.42
2022-11-30T22:21:23.772Z,53.55
2022-11-30T22:24:02.707Z,56.25
2022-11-30T22:28:59.411Z,50.33
2022-11-30T22:31:28.674Z,52.08
2022-11-30T22:33:55.894Z,58.75
2022-11-30T22:36:25.589Z,57.13
2022-11-30T22:38:57.677Z,54.33
2022-11-30T22:41:25.444Z,51.72
2022-11-30T22:43:53.118Z,52.78
2022-11-30T22:46:23.449Z,49.55
2022-11-30T22:48:50.932Z,48.85
2022-11-30T22:51:20.584Z,50.13
2022-11-30T22:53:47.980Z,53.13
2022-11-30T22:56:16.066Z,47.00
2022-11-30T22:58:43.993Z,46.00
2022-11-30T23:01:25.111Z,50.22
2022-11-30T23:03:54.546Z,44.00
2022-11-30T23:06:22.612Z,50.88
2022-11-30T23:08:50.871Z,55.22
2022-11-30T23:11:23.153Z,50.35
2022-11-30T23:13:50.125Z,55.38
2022-11-30T23:18:55.558Z,58.45
2022-11-30T23:21:26.190Z,53.47
2022-11-30T23:23:55.417Z,53.70
2022-11-30T23:26:24.851Z,54.65
2022-11-30T23:28:53.679Z,63.45
2022-11-30T23:31:33.661Z,53.70
2022-11-30T23:34:06.992Z,57.25
2022-11-30T23:36:35.184Z,62.95
2022-11-30T23:39:05.685Z,59.60
2022-11-30T23:41:32.676Z,55.55
2022-11-30T23:43:59.312Z,56.28
2022-11-30T23:46:26.284Z,54.25
2022-11-30T23:48:53.162Z,58.80
2022-11-30T23:53:47.685Z,56.47
2022-11-30T23:56:16.193Z,63.78
2022-11-30T23:58:43.248Z,63.58
